Time;durP1;ratioP1;P1;durP2;ratioP2;P2;SDS_P1;SDS_P2;PMS_P1;PMS_P2;Temp;Humidity;BMP_temperature;BMP_pressure;BME280_temperature;BME280_humidity;BME280_pressure;Samples;Min_cycle;Max_cycle;Signal;HPM_P1;HPM_P2
2022/08/12 00:44:29;;;;;;;12.30;10.10;;;;;;;22.55;57.48;100336.48;117092;1188;22654;-58
2022/08/12 00:47:00;;;;;;;12.90;10.40;;;;;;;22.54;57.44;100335.46;117382;1186;21876;-65
2022/08/12 00:49:28;;;;;;;12.10;10.10;;;;;;;22.52;57.64;100334.37;117122;1186;23205;-58
2022/08/12 00:52:06;;;;;;;12.50;10.40;;;;;;;22.49;57.48;100334.89;117324;1186;22840;-62
2022/08/12 00:54:55;;;;;;;13.20;10.80;;;;;;;22.49;57.48;100334.05;117335;1185;21858;-63
2022/08/12 00:57:31;;;;;;;12.40;10.90;;;;;;;22.48;57.61;100337.02;117168;1186;23657;-59
2022/08/12 01:00:00;;;;;;;11.70;9.60;;;;;;;22.46;57.57;100337.48;117313;1182;23004;-63
2022/08/12 01:02:32;;;;;;;12.90;10.70;;;;;;;22.45;57.58;100339.65;117351;1183;22938;-63
2022/08/12 01:13:39;;;;;;;12.30;10.90;;;;;;;22.45;57.91;100333.97;117245;1185;22177;-60
2022/08/12 01:16:07;;;;;;;15.10;11.40;;;;;;;22.44;57.90;100328.45;117282;1182;21857;-59
2022/08/12 01:18:35;;;;;;;15.10;11.30;;;;;;;22.44;57.94;100323.95;117343;1185;24175;-59
2022/08/12 01:21:10;;;;;;;11.50;10.30;;;;;;;22.46;57.76;100319.02;117070;1181;23018;-59
2022/08/12 01:24:10;;;;;;;13.50;11.10;;;;;;;22.46;57.78;100314.23;117039;1186;22889;-59
2022/08/12 01:26:57;;;;;;;13.10;10.80;;;;;;;22.44;57.74;100309.67;117057;1185;21863;-62
2022/08/12 01:29:26;;;;;;;12.80;11.00;;;;;;;22.44;57.89;100307.35;117356;1182;22634;-59
2022/08/12 01:32:05;;;;;;;14.90;11.20;;;;;;;22.44;57.90;100304.85;117273;1186;22177;-63
2022/08/12 01:34:37;;;;;;;13.30;11.80;;;;;;;22.43;57.99;100302.73;117330;1186;23557;-63
2022/08/12 01:37:06;;;;;;;13.80;11.20;;;;;;;22.41;58.04;100302.87;117257;1182;23478;-58
2022/08/12 01:39:44;;;;;;;13.90;11.60;;;;;;;22.43;58.12;100301.49;117070;1186;23474;-59
2022/08/12 01:42:42;;;;;;;14.10;12.30;;;;;;;22.42;58.25;100297.05;117238;1186;22712;-63
2022/08/12 01:45:11;;;;;;;12.80;11.30;;;;;;;22.40;58.34;100295.56;117245;1182;23682;-59
2022/08/12 01:47:57;;;;;;;12.60;11.20;;;;;;;22.40;58.32;100298.05;117299;1185;21857;-59
2022/08/12 01:50:28;;;;;;;12.40;11.00;;;;;;;22.40;58.59;100293.77;117178;1182;23676;-64
2022/08/12 01:53:04;;;;;;;15.70;12.00;;;;;;;22.41;58.61;100293.53;117065;1183;21984;-59
2022/08/12 01:55:33;;;;;;;15.80;12.20;;;;;;;22.43;58.64;100298.27;116981;1187;22922;-63
2022/08/12 01:58:10;;;;;;;12.60;11.40;;;;;;;22.45;59.00;100294.60;117239;1186;21860;-58
2022/08/12 02:00:50;;;;;;;13.30;11.90;;;;;;;22.45;59.14;100292.83;117283;1186;21858;-62
2022/08/12 02:13:08;;;;;;;13.30;12.00;;;;;;;22.56;59.22;100284.45;116953;1187;21859;-62
2022/08/12 02:15:52;;;;;;;13.80;12.30;;;;;;;22.57;59.33;100278.42;117223;1185;23598;-63
2022/08/12 02:18:23;;;;;;;15.00;13.40;;;;;;;22.60;59.52;100272.20;116936;1188;21857;-62
2022/08/12 02:21:04;;;;;;;15.10;13.50;;;;;;;22.62;59.52;100271.20;117086;1187;22793;-58
2022/08/12 02:23:33;;;;;;;15.10;13.60;;;;;;;22.63;59.70;100270.95;117096;1182;22925;-63
2022/08/12 02:26:06;;;;;;;14.10;12.70;;;;;;;22.64;59.70;100271.59;117294;1185;22833;-63
2022/08/12 02:28:33;;;;;;;14.60;13.00;;;;;;;22.68;59.59;100270.43;117304;1182;22999;-63
2022/08/12 02:31:03;;;;;;;15.20;13.80;;;;;;;22.72;59.75;100269.45;117273;1185;21875;-64
2022/08/12 02:33:31;;;;;;;15.70;13.20;;;;;;;22.75;59.93;100269.98;117278;1186;24319;-58
2022/08/12 02:36:00;;;;;;;15.50;13.80;;;;;;;22.77;59.68;100268.60;117061;1183;21857;-59
2022/08/12 02:38:27;;;;;;;15.30;13.50;;;;;;;22.79;59.88;100266.87;117082;1188;21857;-58
2022/08/12 02:40:54;;;;;;;15.50;14.00;;;;;;;22.82;59.94;100266.67;117322;1185;22622;-58
2022/08/12 02:43:45;;;;;;;17.80;13.60;;;;;;;22.83;59.91;100266.05;117008;1184;22926;-63
2022/08/12 02:46:12;;;;;;;;;;;;;;;22.84;60.27;100266.88;117293;1185;21848;-58
2022/08/12 02:48:46;;;;;;;15.10;13.60;;;;;;;22.85;60.40;100267.17;117338;1182;21955;-59
2022/08/12 02:51:19;;;;;;;17.60;13.90;;;;;;;22.86;60.61;100270.11;117040;1188;21857;-63
2022/08/12 02:53:46;;;;;;;15.60;13.80;;;;;;;22.89;60.53;100272.67;117218;1182;22935;-63
2022/08/12 02:56:32;;;;;;;15.30;13.70;;;;;;;22.92;60.38;100277.09;117073;1180;22962;-59
2022/08/12 02:58:59;;;;;;;15.90;14.00;;;;;;;22.94;60.44;100278.05;117287;1183;22109;-63
2022/08/12 03:01:34;;;;;;;15.60;14.10;;;;;;;22.97;60.50;100275.17;117036;1184;22620;-64
2022/08/12 03:04:39;;;;;;;16.00;14.40;;;;;;;23.00;60.49;100275.27;117086;1183;21862;-59
2022/08/12 03:07:27;;;;;;;15.50;13.90;;;;;;;23.01;60.59;100278.45;117101;1185;22084;-63
2022/08/12 03:10:14;;;;;;;15.40;13.80;;;;;;;23.04;60.67;100282.20;117234;1184;23017;-63
2022/08/12 03:13:02;;;;;;;15.20;13.60;;;;;;;23.07;60.62;100284.02;117244;1186;22925;-59
2022/08/12 03:15:30;;;;;;;15.20;13.70;;;;;;;23.10;60.71;100280.93;117270;1186;23718;-64
2022/08/12 03:18:01;;;;;;;15.50;14.10;;;;;;;23.11;60.62;100278.17;116897;1184;24249;-59
2022/08/12 03:20:48;;;;;;;15.10;13.70;;;;;;;23.13;60.54;100281.64;117035;1187;22327;-63
2022/08/12 03:23:15;;;;;;;16.70;15.00;;;;;;;23.16;60.67;100281.23;116884;1186;22618;-63
2022/08/12 03:25:57;;;;;;;14.90;13.50;;;;;;;23.20;60.62;100280.06;116946;1184;21856;-63
2022/08/12 03:31:10;;;;;;;15.10;13.70;;;;;;;23.24;60.69;100278.77;117215;1185;21866;-63
2022/08/12 03:33:43;;;;;;;16.00;14.50;;;;;;;23.27;60.60;100275.20;117306;1186;23544;-63
2022/08/12 03:36:31;;;;;;;15.60;14.10;;;;;;;23.29;60.69;100274.66;117292;1183;21858;-63
2022/08/12 03:39:26;;;;;;;16.30;14.40;;;;;;;23.30;60.85;100270.14;117177;1182;22087;-63
2022/08/12 03:42:02;;;;;;;16.80;15.20;;;;;;;23.31;60.89;100269.20;117120;1185;23499;-63
2022/08/12 04:01:56;;;;;;;15.60;13.90;;;;;;;23.45;60.92;100255.86;117047;1186;23554;-62
2022/08/12 04:04:28;;;;;;;16.10;14.60;;;;;;;23.49;61.05;100246.52;116930;1187;22810;-58
2022/08/12 04:06:56;;;;;;;15.50;14.00;;;;;;;23.52;61.26;100244.18;117112;1186;22899;-58
2022/08/12 04:09:23;;;;;;;15.50;14.00;;;;;;;23.54;61.10;100235.60;116973;1186;22159;-58
2022/08/12 04:14:36;;;;;;;15.00;13.50;;;;;;;23.62;61.60;100228.97;116977;1187;23666;-59
2022/08/12 04:17:03;;;;;;;16.20;14.70;;;;;;;23.68;61.62;100221.94;117017;1188;22736;-65
2022/08/12 04:19:30;;;;;;;15.80;14.10;;;;;;;23.73;61.48;100221.55;116937;1187;22651;-59
2022/08/12 04:21:57;;;;;;;15.00;13.70;;;;;;;23.81;61.33;100214.35;116983;1186;21863;-66
2022/08/12 04:24:33;;;;;;;15.90;14.00;;;;;;;23.89;61.57;100209.16;116998;1187;24175;-65
2022/08/12 04:27:04;;;;;;;15.80;14.20;;;;;;;23.97;61.31;100207.88;117045;1187;24246;-65
2022/08/12 04:29:33;;;;;;;16.10;14.40;;;;;;;24.07;61.07;100211.86;117403;1186;21871;-65
2022/08/12 04:32:22;;;;;;;16.60;14.90;;;;;;;24.15;60.90;100211.11;117220;1185;21902;-58
2022/08/12 04:34:50;;;;;;;15.50;14.10;;;;;;;24.23;61.03;100211.25;117161;1182;22639;-64
2022/08/12 04:37:17;;;;;;;15.80;14.20;;;;;;;24.32;60.79;100213.48;117484;1187;21894;-59
2022/08/12 04:39:44;;;;;;;15.10;13.60;;;;;;;24.38;60.71;100217.16;118070;1185;21788;-59
2022/08/12 04:42:11;;;;;;;14.60;13.20;;;;;;;24.43;60.69;100219.86;117492;1185;21951;-59
2022/08/12 04:44:39;;;;;;;14.80;13.30;;;;;;;24.46;60.59;100220.88;116989;1186;22918;-64
2022/08/12 04:47:10;;;;;;;14.30;12.70;;;;;;;24.50;60.41;100221.32;116917;1184;22886;-64
2022/08/12 04:49:38;;;;;;;14.60;13.20;;;;;;;24.52;60.31;100227.80;119030;1186;21796;-65
2022/08/12 04:52:04;;;;;;;14.80;13.40;;;;;;;24.54;60.30;100232.67;119307;1186;21720;-61
2022/08/12 04:54:32;;;;;;;14.30;12.90;;;;;;;24.56;60.27;100227.33;118213;1187;21946;-59
2022/08/12 04:57:00;;;;;;;14.50;12.80;;;;;;;24.59;60.25;100228.39;116796;1187;22713;-64
2022/08/12 04:59:34;;;;;;;14.30;13.00;;;;;;;24.61;60.28;100227.69;119075;1186;21787;-59
2022/08/12 05:02:16;;;;;;;15.20;11.90;;;;;;;24.62;60.14;100226.92;117172;1187;22866;-59
2022/08/12 05:04:51;;;;;;;14.70;13.20;;;;;;;24.64;60.18;100224.76;117080;1185;22846;-58
2022/08/12 05:07:18;;;;;;;;;;;;;;;24.67;60.16;100228.16;117114;1184;23534;-59
2022/08/12 05:09:46;;;;;;;13.80;12.40;;;;;;;24.70;60.05;100228.83;117000;1187;22933;-58
2022/08/12 05:12:36;;;;;;;14.20;12.80;;;;;;;24.77;59.77;100231.77;116915;1186;21865;-63
2022/08/12 05:15:04;;;;;;;14.10;12.60;;;;;;;24.80;59.66;100228.85;119120;1183;22120;-64
2022/08/12 05:17:51;;;;;;;13.90;12.60;;;;;;;24.82;59.47;100225.30;119132;1183;21833;-66
2022/08/12 05:20:19;;;;;;;13.30;12.00;;;;;;;24.84;59.52;100225.91;118939;1186;21768;-59
2022/08/12 05:22:46;;;;;;;13.50;12.00;;;;;;;24.86;59.35;100225.90;118716;1186;21860;-59
2022/08/12 05:25:14;;;;;;;13.60;12.20;;;;;;;24.86;59.36;100222.29;119354;1183;21776;-59
2022/08/12 05:27:44;;;;;;;12.80;11.60;;;;;;;24.90;59.44;100226.80;118759;1182;24249;-58
2022/08/12 05:30:26;;;;;;;12.90;11.70;;;;;;;24.93;59.12;100222.10;117035;1187;23467;-65
2022/08/12 05:32:56;;;;;;;12.80;11.50;;;;;;;24.95;59.07;100224.31;117254;1186;23641;-65
2022/08/12 05:35:26;;;;;;;13.50;12.00;;;;;;;24.94;59.17;100221.48;116941;1184;21859;-66
2022/08/12 05:38:54;;;;;;;14.50;11.70;;;;;;;24.95;59.10;100219.09;116951;1185;22861;-65
2022/08/12 05:40:40;;;;;;;13.70;12.40;;;;;;;24.99;58.96;100214.54;117083;1185;21861;-59
2022/08/12 05:43:07;;;;;;;13.50;12.10;;;;;;;25.02;59.01;100215.02;117253;1186;22071;-59
2022/08/12 05:45:34;;;;;;;13.60;12.20;;;;;;;25.06;58.95;100214.14;117206;1184;22918;-59
2022/08/12 05:48:05;;;;;;;13.90;12.20;;;;;;;25.12;58.91;100210.34;117084;1187;22990;-66
2022/08/12 05:50:34;;;;;;;16.10;12.10;;;;;;;25.18;58.86;100207.33;116934;1187;22389;-66
2022/08/12 05:53:01;;;;;;;13.60;12.30;;;;;;;25.24;58.80;100205.09;117018;1183;24171;-59
2022/08/12 05:55:28;;;;;;;12.70;11.50;;;;;;;25.37;58.69;100202.26;117248;1186;22323;-66
2022/08/12 05:57:57;;;;;;;13.30;11.90;;;;;;;25.49;58.54;100202.65;117012;1182;22929;-58
2022/08/12 06:00:24;;;;;;;12.80;11.40;;;;;;;25.62;58.36;100203.79;117111;1187;23204;-59
2022/08/12 06:03:01;;;;;;;15.30;12.10;;;;;;;25.77;58.27;100200.07;116998;1186;22873;-58
2022/08/12 06:05:29;;;;;;;14.60;11.60;;;;;;;25.93;58.00;100193.78;117032;1187;22156;-64
2022/08/12 06:07:56;;;;;;;15.90;13.00;;;;;;;26.08;57.72;100196.18;117113;1183;22954;-65
2022/08/12 06:10:29;;;;;;;14.40;11.80;;;;;;;26.19;57.62;100192.48;116917;1186;21859;-58
2022/08/12 06:13:01;;;;;;;14.00;12.40;;;;;;;26.25;57.50;100193.82;116910;1186;22941;-59
2022/08/12 06:15:29;;;;;;;13.80;12.40;;;;;;;26.27;57.42;100192.76;116945;1187;21863;-64
2022/08/12 06:18:23;;;;;;;13.30;12.00;;;;;;;26.33;57.44;100194.04;117052;1186;21898;-66
2022/08/12 06:20:58;;;;;;;14.40;12.50;;;;;;;26.43;57.49;100189.44;117071;1182;21910;-59
2022/08/12 06:23:28;;;;;;;22.60;12.70;;;;;;;26.57;57.33;100185.27;117056;1186;21868;-59
2022/08/12 06:25:56;;;;;;;14.20;12.40;;;;;;;26.78;57.19;100183.00;117077;1186;21882;-60
2022/08/12 06:28:24;;;;;;;14.00;12.60;;;;;;;26.97;57.00;100179.11;117058;1187;21871;-59
2022/08/12 06:30:51;;;;;;;14.00;12.70;;;;;;;27.19;56.80;100179.07;116947;1189;21867;-60
2022/08/12 06:33:42;;;;;;;13.80;12.50;;;;;;;27.40;56.65;100182.51;116964;1184;21973;-59
2022/08/12 06:36:26;;;;;;;13.20;11.90;;;;;;;27.62;56.54;100175.37;117040;1187;21865;-65
2022/08/12 06:38:58;;;;;;;13.60;12.10;;;;;;;27.84;56.19;100175.09;117104;1187;21861;-64
2022/08/12 06:44:31;;;;;;;13.50;12.10;;;;;;;28.21;55.58;100179.92;116939;1186;21859;-59
2022/08/12 06:46:59;;;;;;;13.20;11.90;;;;;;;28.34;55.47;100178.40;116978;1186;21860;-60
2022/08/12 06:49:27;;;;;;;13.30;12.00;;;;;;;28.43;55.37;100173.15;117099;1187;22194;-64
2022/08/12 06:51:54;;;;;;;14.90;13.30;;;;;;;28.53;55.32;100172.70;116864;1182;21902;-64
2022/08/12 06:54:24;;;;;;;14.30;12.90;;;;;;;28.68;55.29;100172.46;117102;1187;21857;-65
2022/08/12 06:57:01;;;;;;;14.10;12.60;;;;;;;28.83;55.02;100172.77;117041;1186;22895;-64
2022/08/12 06:59:49;;;;;;;13.60;12.20;;;;;;;28.99;54.67;100173.27;117026;1184;21955;-65
2022/08/12 07:02:18;;;;;;;15.20;13.00;;;;;;;29.15;54.66;100168.86;117080;1183;21854;-65
2022/08/12 07:04:46;;;;;;;15.70;12.90;;;;;;;29.34;54.74;100165.99;117200;1182;22644;-59
2022/08/12 07:07:14;;;;;;;14.30;12.70;;;;;;;29.54;54.45;100166.84;117410;1186;21868;-67
2022/08/12 07:09:41;;;;;;;14.70;13.30;;;;;;;29.73;54.30;100170.45;117327;1185;22924;-67
2022/08/12 07:12:29;;;;;;;15.20;12.60;;;;;;;29.92;54.01;100173.86;117266;1182;22322;-60
2022/08/12 07:14:57;;;;;;;14.70;13.20;;;;;;;30.08;53.77;100171.84;117078;1188;21859;-66
2022/08/12 07:17:25;;;;;;;15.00;13.40;;;;;;;30.20;53.18;100174.62;117347;1185;22940;-65
2022/08/12 07:19:52;;;;;;;15.10;13.60;;;;;;;30.27;53.09;100170.31;117310;1182;23539;-64
2022/08/12 07:22:21;;;;;;;20.40;16.20;;;;;;;30.37;53.11;100172.56;117347;1186;22972;-65
2022/08/12 07:25:29;;;;;;;19.50;17.30;;;;;;;30.50;52.71;100170.59;117343;1186;21864;-60
2022/08/12 07:27:41;;;;;;;16.60;14.00;;;;;;;30.62;52.34;100171.72;117290;1182;22930;-66
2022/08/12 07:30:09;;;;;;;15.40;13.70;;;;;;;30.69;52.02;100177.97;117536;1183;21938;-60
2022/08/12 07:32:36;;;;;;;14.80;13.30;;;;;;;30.70;51.86;100174.40;118362;1182;23451;-60
2022/08/12 07:35:03;;;;;;;16.00;13.80;;;;;;;30.74;52.18;100174.86;117273;1181;23474;-60
2022/08/12 07:37:31;;;;;;;15.50;14.00;;;;;;;30.79;52.04;100178.37;117373;1182;21850;-65
2022/08/12 07:39:58;;;;;;;15.30;13.10;;;;;;;30.79;51.67;100180.71;117335;1185;22976;-65
2022/08/12 07:42:28;;;;;;;18.00;14.30;;;;;;;30.83;51.85;100177.27;117353;1186;21857;-60
2022/08/12 07:44:55;;;;;;;14.90;13.40;;;;;;;30.84;51.63;100180.59;117333;1184;21848;-65
2022/08/12 07:47:23;;;;;;;19.30;14.10;;;;;;;30.80;51.58;100182.27;117288;1186;21981;-60
2022/08/12 07:49:51;;;;;;;14.70;13.20;;;;;;;30.77;51.65;100181.70;117381;1185;22444;-60
2022/08/12 07:52:41;;;;;;;16.80;13.80;;;;;;;30.75;51.67;100184.04;117256;1186;21874;-60
2022/08/12 07:55:09;;;;;;;15.50;13.60;;;;;;;30.68;51.46;100185.46;117329;1185;23458;-60
2022/08/12 07:57:47;;;;;;;14.90;13.30;;;;;;;30.53;51.21;100188.89;117366;1183;24224;-60
2022/08/12 08:00:15;;;;;;;16.20;13.40;;;;;;;30.34;51.06;100186.80;117335;1186;22953;-59
2022/08/12 08:02:42;;;;;;;17.80;14.70;;;;;;;30.18;51.36;100186.73;117158;1186;22925;-60
2022/08/12 08:05:09;;;;;;;20.00;18.00;;;;;;;30.07;51.63;100186.50;117041;1186;21861;-60
2022/08/12 08:07:37;;;;;;;16.20;14.40;;;;;;;29.95;51.33;100185.16;117006;1187;22929;-59
2022/08/12 08:10:06;;;;;;;16.30;14.60;;;;;;;29.84;51.78;100189.95;117116;1186;21854;-60
2022/08/12 08:15:22;;;;;;;15.80;13.90;;;;;;;29.77;52.17;100192.84;116993;1186;21858;-60
2022/08/12 08:18:11;;;;;;;15.80;14.20;;;;;;;29.78;52.04;100187.39;117257;1186;22936;-59
2022/08/12 08:20:52;;;;;;;15.50;14.10;;;;;;;29.75;51.99;100188.75;116971;1182;22815;-60
2022/08/12 08:23:19;;;;;;;14.80;13.30;;;;;;;29.71;52.12;100186.79;117053;1184;21859;-59
2022/08/12 08:25:48;;;;;;;15.90;14.20;;;;;;;29.66;52.13;100189.60;117244;1186;21859;-59
2022/08/12 08:28:16;;;;;;;16.70;14.10;;;;;;;29.60;51.89;100195.90;117234;1182;22843;-59
2022/08/12 08:30:44;;;;;;;16.50;14.80;;;;;;;29.55;52.03;100197.48;117238;1182;22834;-59
2022/08/12 08:33:12;;;;;;;16.00;14.50;;;;;;;29.53;52.33;100199.29;116959;1187;22929;-59
2022/08/12 08:36:02;;;;;;;17.30;15.60;;;;;;;29.58;52.32;100198.84;117017;1182;22928;-59
2022/08/12 08:38:29;;;;;;;17.70;15.40;;;;;;;29.64;52.11;100200.59;118482;1183;23478;-60
2022/08/12 08:44:09;;;;;;;17.10;15.30;;;;;;;29.76;52.19;100196.08;117105;1186;23018;-66
2022/08/12 08:46:38;;;;;;;16.40;14.80;;;;;;;29.78;52.09;100195.13;116971;1187;23590;-61
2022/08/12 08:49:05;;;;;;;17.40;14.90;;;;;;;29.81;52.22;100190.60;117264;1185;22879;-60
2022/08/12 08:51:33;;;;;;;16.50;15.00;;;;;;;29.88;52.19;100188.16;117194;1186;21870;-63
2022/08/12 08:54:00;;;;;;;16.10;14.40;;;;;;;29.93;51.91;100183.75;117276;1185;21848;-64
2022/08/12 08:56:30;;;;;;;17.20;15.30;;;;;;;29.99;52.02;100184.84;117282;1185;21848;-64
2022/08/12 08:58:57;;;;;;;18.60;16.20;;;;;;;30.01;51.98;100185.52;117039;1186;23939;-64
2022/08/12 09:01:25;;;;;;;18.10;16.30;;;;;;;30.03;51.93;100188.08;117099;1186;21855;-65
2022/08/12 09:04:04;;;;;;;18.40;16.10;;;;;;;29.97;51.91;100186.61;116972;1187;21859;-65
2022/08/12 09:06:57;;;;;;;18.40;16.50;;;;;;;29.88;51.86;100187.63;117064;1184;22867;-59
2022/08/12 09:09:25;;;;;;;18.70;16.90;;;;;;;29.85;51.99;100187.05;116953;1187;21855;-60
2022/08/12 09:15:02;;;;;;;23.00;17.00;;;;;;;29.79;52.15;100176.91;117069;1186;22971;-59
2022/08/12 09:17:54;;;;;;;18.50;16.30;;;;;;;29.83;52.13;100174.23;117015;1187;21833;-64
2022/08/12 09:20:24;;;;;;;18.00;16.10;;;;;;;29.91;52.27;100171.11;117004;1183;24191;-65
2022/08/12 09:23:11;;;;;;;17.30;15.80;;;;;;;29.99;52.23;100169.98;117046;1188;21855;-64
2022/08/12 09:26:01;;;;;;;17.50;15.60;;;;;;;30.10;52.36;100168.58;116951;1183;21908;-59
2022/08/12 09:28:31;;;;;;;21.50;16.10;;;;;;;30.25;52.48;100168.67;117073;1187;21954;-59
2022/08/12 09:30:59;;;;;;;18.20;15.90;;;;;;;30.48;52.03;100164.05;117093;1186;24197;-59
2022/08/12 09:33:32;;;;;;;20.30;16.10;;;;;;;30.75;51.99;100161.05;117197;1185;22625;-64
2022/08/12 09:36:20;;;;;;;17.60;15.10;;;;;;;31.12;52.04;100159.69;117132;1186;21939;-59
2022/08/12 09:39:07;;;;;;;18.00;15.50;;;;;;;31.62;51.75;100155.61;117039;1184;23555;-60
2022/08/12 09:47:50;;;;;;;;;;;;;;;33.19;50.24;100144.39;117287;1186;23434;-60
2022/08/12 09:50:26;;;;;;;20.30;14.70;;;;;;;33.51;49.74;100144.05;117283;1186;21945;-64
2022/08/12 09:53:06;;;;;;;17.70;15.00;;;;;;;33.61;49.22;100147.02;117308;1183;24175;-65
2022/08/12 09:55:51;;;;;;;16.10;14.50;;;;;;;33.51;49.08;100145.02;117278;1185;22548;-65
2022/08/12 09:58:40;;;;;;;16.80;15.10;;;;;;;33.43;49.10;100145.27;117233;1185;21860;-60
2022/08/12 10:01:26;;;;;;;19.40;15.50;;;;;;;33.33;49.08;100147.89;117237;1182;21851;-63
2022/08/12 10:04:14;;;;;;;17.20;15.40;;;;;;;33.20;49.06;100145.59;117117;1182;21903;-61
2022/08/12 10:06:45;;;;;;;16.00;14.20;;;;;;;33.03;49.00;100142.76;117251;1186;21860;-64
2022/08/12 10:09:21;;;;;;;18.50;14.80;;;;;;;32.90;49.01;100139.39;117238;1186;21859;-60
2022/08/12 10:14:56;;;;;;;17.70;15.10;;;;;;;32.99;49.17;100136.27;117106;1186;23462;-65
2022/08/12 10:17:23;;;;;;;17.00;15.20;;;;;;;33.21;48.68;100138.36;116981;1186;21872;-60
2022/08/12 10:19:51;;;;;;;19.80;15.00;;;;;;;33.51;48.92;100138.70;116963;1186;22999;-64
2022/08/12 10:22:22;;;;;;;17.90;16.00;;;;;;;33.78;48.85;100129.35;117213;1183;22996;-60
2022/08/12 10:30:58;;;;;;;17.30;15.10;;;;;;;34.19;47.98;100125.08;117013;1184;21863;-65
2022/08/12 10:33:32;;;;;;;16.70;15.00;;;;;;;34.33;47.52;100128.07;117152;1185;22023;-61
2022/08/12 10:36:11;;;;;;;16.90;15.10;;;;;;;34.38;47.44;100126.19;116963;1187;21861;-66
2022/08/12 10:38:38;;;;;;;16.00;14.40;;;;;;;34.29;47.28;100124.98;117007;1187;23671;-65
2022/08/12 10:44:15;;;;;;;18.20;14.80;;;;;;;34.21;46.91;100124.70;116913;1185;22929;-60
2022/08/12 10:46:45;;;;;;;17.40;14.90;;;;;;;34.26;46.82;100123.39;116857;1189;22855;-65
2022/08/12 10:49:16;;;;;;;16.30;14.60;;;;;;;34.32;46.82;100122.33;116919;1185;23456;-66
2022/08/12 10:52:06;;;;;;;19.00;14.20;;;;;;;34.30;46.51;100123.05;116997;1186;21860;-66
2022/08/12 10:54:54;;;;;;;;;;;;;;;34.14;46.76;100122.76;116951;1187;21836;-61
2022/08/12 10:57:26;;;;;;;18.70;14.70;;;;;;;34.01;46.72;100123.76;117037;1186;21940;-62
2022/08/12 11:00:13;;;;;;;;;;;;;;;33.93;46.71;100125.39;116946;1187;22096;-66
2022/08/12 11:03:01;;;;;;;16.50;14.20;;;;;;;33.81;46.77;100134.66;116888;1189;21867;-66
2022/08/12 11:05:48;;;;;;;17.20;14.10;;;;;;;33.62;46.81;100130.52;116835;1188;21919;-60
2022/08/12 11:08:37;;;;;;;16.10;14.30;;;;;;;33.48;46.87;100127.53;117785;1186;21946;-59
2022/08/12 11:11:16;;;;;;;18.20;14.40;;;;;;;33.38;46.95;100127.90;117056;1184;21865;-60
2022/08/12 11:14:04;;;;;;;16.30;14.10;;;;;;;33.42;47.21;100123.86;117261;1182;22901;-61
2022/08/12 11:16:38;;;;;;;16.90;14.20;;;;;;;33.59;47.01;100116.67;116931;1183;22808;-64
2022/08/12 11:19:26;;;;;;;17.40;13.60;;;;;;;33.77;46.73;100118.79;117242;1182;21916;-66
2022/08/12 11:21:56;;;;;;;17.80;13.70;;;;;;;33.98;47.02;100113.25;116997;1187;21956;-66
2022/08/12 11:24:29;;;;;;;15.80;12.60;;;;;;;34.25;46.69;100108.00;117053;1187;21857;-66
2022/08/12 11:27:00;;;;;;;17.80;13.70;;;;;;;34.49;46.33;100101.41;116969;1187;21865;-66
2022/08/12 11:29:33;;;;;;;15.50;12.50;;;;;;;34.65;45.81;100100.44;117044;1184;21889;-66
2022/08/12 11:32:20;;;;;;;17.10;11.90;;;;;;;34.73;45.35;100099.67;117611;1183;22113;-68
2022/08/12 11:34:50;;;;;;;21.60;13.50;;;;;;;34.67;45.00;100105.39;117215;1185;21895;-67
2022/08/12 11:37:21;;;;;;;17.30;12.20;;;;;;;34.56;45.33;100098.04;117193;1184;21906;-60
2022/08/12 11:39:53;;;;;;;18.00;11.30;;;;;;;34.56;45.59;100099.29;118749;1186;21901;-67
2022/08/12 11:42:34;;;;;;;15.80;10.90;;;;;;;34.77;45.48;100094.31;116870;1184;21863;-67
2022/08/12 11:45:06;;;;;;;19.60;10.90;;;;;;;35.01;44.94;100091.61;117297;1185;21848;-61
2022/08/12 11:47:37;;;;;;;19.10;11.60;;;;;;;35.15;44.64;100085.17;117007;1185;23050;-67
2022/08/12 11:50:08;;;;;;;12.30;9.80;;;;;;;35.29;44.76;100082.32;117094;1184;21861;-67
2022/08/12 11:52:46;;;;;;;17.90;10.60;;;;;;;35.49;44.72;100075.77;116938;1184;23459;-60
2022/08/12 11:55:23;;;;;;;17.20;11.10;;;;;;;35.73;44.39;100073.19;117031;1185;21959;-61
2022/08/12 11:57:54;;;;;;;18.90;11.00;;;;;;;35.86;43.90;100070.27;117030;1186;22932;-64
2022/08/12 12:00:41;;;;;;;14.90;10.40;;;;;;;35.92;43.34;100070.14;116971;1187;22929;-60
2022/08/12 12:03:28;;;;;;;16.90;10.90;;;;;;;36.09;43.45;100063.34;117029;1188;21856;-67
2022/08/12 12:06:16;;;;;;;15.50;11.10;;;;;;;36.30;42.97;100058.76;117248;1185;21853;-67
2022/08/12 12:08:44;;;;;;;14.60;10.20;;;;;;;36.47;43.05;100064.48;117161;1187;21863;-67
2022/08/12 12:11:18;;;;;;;17.70;10.40;;;;;;;36.60;42.97;100063.43;117290;1185;21867;-65
2022/08/12 12:13:46;;;;;;;19.20;10.50;;;;;;;36.72;42.67;100061.00;117049;1184;23479;-60
2022/08/12 12:16:32;;;;;;;14.90;11.20;;;;;;;36.86;41.99;100060.27;117058;1184;22814;-60
2022/08/12 12:19:07;;;;;;;17.20;11.40;;;;;;;36.97;41.93;100054.02;117451;1186;22905;-68
2022/08/12 12:21:37;;;;;;;16.60;10.60;;;;;;;37.03;41.80;100056.94;117059;1187;21903;-65
2022/08/12 12:24:18;;;;;;;14.70;10.20;;;;;;;36.97;41.68;100057.27;117153;1185;21864;-61
2022/08/12 12:26:51;;;;;;;16.20;11.10;;;;;;;36.76;41.68;100054.77;117142;1185;21878;-61
2022/08/12 12:29:30;;;;;;;14.80;10.10;;;;;;;36.54;41.97;100053.34;117349;1182;21850;-61
2022/08/12 12:32:18;;;;;;;12.70;9.70;;;;;;;36.39;42.23;100045.35;117260;1185;21855;-66
2022/08/12 12:34:55;;;;;;;16.40;9.80;;;;;;;36.41;42.41;100041.08;117277;1185;23541;-61
2022/08/12 12:38:09;;;;;;;14.80;10.10;;;;;;;36.53;42.15;100043.63;117253;1186;22970;-66
2022/08/12 12:40:45;;;;;;;17.70;9.20;;;;;;;36.77;42.23;100040.36;117306;1185;21965;-67
2022/08/12 12:43:16;;;;;;;16.90;9.60;;;;;;;37.08;41.91;100036.79;117067;1190;21871;-61
2022/08/12 12:46:04;;;;;;;17.00;8.80;;;;;;;37.26;41.49;100028.08;116941;1187;21895;-61
2022/08/12 12:48:31;;;;;;;25.10;11.00;;;;;;;37.21;40.95;100028.25;117286;1184;22030;-60
2022/08/12 12:51:16;;;;;;;15.50;9.80;;;;;;;37.14;41.01;100024.64;117049;1186;21962;-67
2022/08/12 12:54:03;;;;;;;16.50;10.10;;;;;;;36.88;40.52;100020.96;117063;1187;22027;-60
2022/08/12 12:56:41;;;;;;;15.90;9.00;;;;;;;36.55;40.84;100030.79;117045;1187;22856;-61
2022/08/12 12:59:09;;;;;;;22.30;9.90;;;;;;;36.22;41.22;100039.50;117069;1188;21859;-67
2022/08/12 13:01:58;;;;;;;17.80;9.70;;;;;;;35.80;42.82;100050.20;117244;1184;21848;-60
2022/08/12 13:04:33;;;;;;;18.70;9.00;;;;;;;35.24;43.58;100065.52;117040;1188;23450;-61
2022/08/12 13:07:03;;;;;;;31.80;12.10;;;;;;;34.53;44.25;100084.52;117343;1186;21858;-65
2022/08/12 13:09:33;;;;;;;14.90;9.80;;;;;;;33.80;45.12;100090.38;117048;1186;23452;-60
2022/08/12 13:12:05;;;;;;;16.70;10.10;;;;;;;33.06;45.64;100098.41;117077;1185;21943;-61
2022/08/12 13:14:33;;;;;;;20.40;10.80;;;;;;;32.37;46.46;100106.50;117304;1185;21848;-60
2022/08/12 13:17:08;;;;;;;21.30;10.60;;;;;;;31.89;46.92;100106.23;117303;1185;23452;-61
2022/08/12 13:19:37;;;;;;;24.60;11.70;;;;;;;31.44;47.92;100109.08;117075;1184;23715;-61
2022/08/12 13:22:16;;;;;;;26.10;10.70;;;;;;;31.02;48.36;100126.94;117285;1186;22418;-61
2022/08/12 13:24:45;;;;;;;29.10;13.10;;;;;;;30.68;48.48;100152.84;117130;1184;21868;-61
2022/08/12 13:27:23;;;;;;;27.90;11.70;;;;;;;30.34;49.50;100161.13;117063;1187;21853;-61
2022/08/12 13:30:08;;;;;;;19.10;9.00;;;;;;;29.76;50.01;100163.46;117237;1185;23477;-61
2022/08/12 13:32:44;;;;;;;17.80;8.70;;;;;;;29.04;49.93;100165.94;117129;1188;22097;-64